< Typhoon 202104 2021 Season Typhoon 202106 >
Typhoon 202105 (CHAMPI)
General InformationTrack Information on Google MapsDetailed Wind InformationForecast History on Google MapsAccess Analytics MapList of All Images || NewsDisaster Info.WeblogTrackbackTyphoon FrontTwiphoonTyphoon Now!Typhoon ImaginationJMA Disaster Info. XMLResourceGoogle EarthGE AnimationAtom FeedGeoJSON
Detalied Best Track (Time Zone = UTC)
Year Month Day Hour Lat. Long. Pressure (hPa) Wind (kt) Class Image Chart
2021 6 22 00 13.4 143.6 1010 30 2 Image Chart
2021 6 22 03 13.5 143.0 1010 30 2 Image Chart
2021 6 22 06 14.3 142.6 1008 30 2 Image Chart
2021 6 22 09 14.5 142.3 1008 30 2 Image Chart
2021 6 22 12 14.9 142.3 1008 30 2 Image Chart
2021 6 22 15 15.3 142.2 1008 30 2 Image Chart
2021 6 22 18 15.5 142.0 1006 30 2 Image Chart
2021 6 22 21 15.7 141.8 1006 30 2 Image Chart
2021 6 23 00 15.7 141.6 1002 35 3 Image Chart
2021 6 23 03 16.2 141.0 1002 35 3 Image Chart
2021 6 23 06 17.0 141.0 1000 40 3 Image Chart
2021 6 23 09 17.7 140.5 1000 40 3 Image Chart
2021 6 23 12 18.3 141.1 998 45 3 Image Chart
2021 6 23 15 18.5 140.7 998 45 3 Image Chart
2021 6 23 18 19.0 140.4 998 45 3 Image Chart
2021 6 23 21 19.3 140.2 998 45 3 Image Chart
2021 6 24 00 19.3 140.0 992 50 4 Image Chart
2021 6 24 03 19.3 140.0 992 50 4 Image Chart
2021 6 24 06 19.3 140.0 992 50 4 Image Chart
2021 6 24 09 19.4 139.7 992 50 4 Image Chart
2021 6 24 12 19.6 139.7 992 50 4 Image Chart
2021 6 24 15 19.8 139.8 992 50 4 Image Chart
2021 6 24 18 20.0 139.8 992 50 4 Image Chart
2021 6 24 21 20.3 139.7 992 50 4 Image Chart
2021 6 25 00 20.6 139.4 985 60 4 Image Chart
2021 6 25 03 21.3 139.3 985 60 4 Image Chart
2021 6 25 06 21.9 139.0 980 65 5 Image Chart
2021 6 25 09 22.4 139.0 980 65 5 Image Chart
2021 6 25 12 22.8 139.0 980 65 5 Image Chart
2021 6 25 15 23.2 139.0 980 65 5 Image Chart
2021 6 25 18 23.6 139.2 980 65 5 Image Chart
2021 6 25 21 24.0 139.4 980 65 5 Image Chart
2021 6 26 00 24.8 139.7 980 65 5 Image Chart
2021 6 26 03 25.1 139.9 980 65 5 Image Chart
2021 6 26 06 25.8 140.1 980 65 5 Image Chart
2021 6 26 09 26.3 140.0 980 65 5 Image Chart
2021 6 26 12 26.9 140.2 985 60 4 Image Chart
2021 6 26 15 27.5 140.5 985 60 4 Image Chart
2021 6 26 18 28.3 140.8 992 50 4 Image Chart
2021 6 26 21 29.2 141.2 992 50 4 Image Chart
2021 6 27 00 29.9 141.4 994 45 3 Image Chart
2021 6 27 03 30.7 141.6 994 45 3 Image Chart
2021 6 27 06 31.8 142.3 996 40 3 Image Chart
2021 6 27 09 32.7 142.9 996 40 3 Image Chart
2021 6 27 12 34.0 144.0 998 40 6 Image Chart
Japan Meteorological Agency Best Track Data | Correction Date : 2021-06-27
< Typhoon 202104 2021 Season Typhoon 202106 >

Help